sensor_id;sensor_type;location;lat;lon;timestamp;P1;durP1;ratioP1;P2;durP2;ratioP2
49784;SDS011;35679;38.732;-121.358;2022-08-01T00:01:55;5.97;;;4.00;;
49784;SDS011;35679;38.732;-121.358;2022-08-01T00:04:44;4.72;;;3.72;;
49784;SDS011;35679;38.732;-121.358;2022-08-01T00:07:34;4.32;;;3.80;;
49784;SDS011;35679;38.732;-121.358;2022-08-01T00:10:24;4.85;;;3.50;;
49784;SDS011;35679;38.732;-121.358;2022-08-01T00:13:13;4.38;;;3.60;;
49784;SDS011;35679;38.732;-121.358;2022-08-01T00:16:03;6.50;;;3.88;;
49784;SDS011;35679;38.732;-121.358;2022-08-01T00:18:52;4.53;;;4.07;;
49784;SDS011;35679;38.732;-121.358;2022-08-01T00:21:42;5.60;;;3.80;;
49784;SDS011;35679;38.732;-121.358;2022-08-01T00:24:38;3.97;;;3.60;;
49784;SDS011;35679;38.732;-121.358;2022-08-01T00:27:28;4.38;;;3.83;;
49784;SDS011;35679;38.732;-121.358;2022-08-01T00:30:17;5.97;;;3.97;;
49784;SDS011;35679;38.732;-121.358;2022-08-01T00:33:07;5.20;;;3.65;;
49784;SDS011;35679;38.732;-121.358;2022-08-01T00:35:56;3.90;;;3.50;;
49784;SDS011;35679;38.732;-121.358;2022-08-01T00:38:46;4.90;;;3.80;;
49784;SDS011;35679;38.732;-121.358;2022-08-01T00:41:36;5.55;;;3.67;;
49784;SDS011;35679;38.732;-121.358;2022-08-01T00:44:26;4.88;;;3.92;;
49784;SDS011;35679;38.732;-121.358;2022-08-01T00:47:15;3.92;;;3.63;;
49784;SDS011;35679;38.732;-121.358;2022-08-01T00:50:05;4.18;;;3.60;;
49784;SDS011;35679;38.732;-121.358;2022-08-01T00:52:55;4.47;;;3.85;;
49784;SDS011;35679;38.732;-121.358;2022-08-01T00:58:36;4.00;;;3.60;;
49784;SDS011;35679;38.732;-121.358;2022-08-01T01:01:26;3.83;;;3.50;;
49784;SDS011;35679;38.732;-121.358;2022-08-01T01:04:26;3.88;;;3.58;;
49784;SDS011;35679;38.732;-121.358;2022-08-01T01:13:47;4.43;;;3.63;;
49784;SDS011;35679;38.732;-121.358;2022-08-01T01:16:41;3.63;;;3.33;;
49784;SDS011;35679;38.732;-121.358;2022-08-01T01:19:33;4.23;;;3.77;;
49784;SDS011;35679;38.732;-121.358;2022-08-01T01:25:38;4.20;;;3.60;;
49784;SDS011;35679;38.732;-121.358;2022-08-01T01:32:10;4.30;;;3.67;;
49784;SDS011;35679;38.732;-121.358;2022-08-01T01:35:09;4.18;;;3.75;;
49784;SDS011;35679;38.732;-121.358;2022-08-01T01:38:05;3.70;;;3.40;;
49784;SDS011;35679;38.732;-121.358;2022-08-01T01:40:59;3.92;;;3.63;;
49784;SDS011;35679;38.732;-121.358;2022-08-01T01:43:50;4.30;;;4.00;;
49784;SDS011;35679;38.732;-121.358;2022-08-01T01:46:41;3.63;;;3.33;;
49784;SDS011;35679;38.732;-121.358;2022-08-01T01:49:33;5.90;;;3.50;;
49784;SDS011;35679;38.732;-121.358;2022-08-01T01:52:23;3.75;;;3.40;;
49784;SDS011;35679;38.732;-121.358;2022-08-01T01:55:16;4.05;;;3.67;;
49784;SDS011;35679;38.732;-121.358;2022-08-01T01:58:07;4.00;;;3.70;;
49784;SDS011;35679;38.732;-121.358;2022-08-01T02:01:02;3.80;;;3.50;;
49784;SDS011;35679;38.732;-121.358;2022-08-01T02:04:00;6.82;;;3.78;;
49784;SDS011;35679;38.732;-121.358;2022-08-01T02:06:51;5.40;;;3.95;;
49784;SDS011;35679;38.732;-121.358;2022-08-01T02:09:42;5.75;;;4.05;;
49784;SDS011;35679;38.732;-121.358;2022-08-01T02:12:35;7.85;;;4.18;;
49784;SDS011;35679;38.732;-121.358;2022-08-01T02:15:26;6.25;;;3.83;;
49784;SDS011;35679;38.732;-121.358;2022-08-01T02:21:11;6.60;;;4.23;;
49784;SDS011;35679;38.732;-121.358;2022-08-01T02:24:24;7.53;;;4.65;;
49784;SDS011;35679;38.732;-121.358;2022-08-01T02:27:22;7.15;;;4.30;;
49784;SDS011;35679;38.732;-121.358;2022-08-01T02:30:17;7.70;;;4.32;;
49784;SDS011;35679;38.732;-121.358;2022-08-01T02:33:12;5.82;;;4.20;;
49784;SDS011;35679;38.732;-121.358;2022-08-01T02:36:07;6.65;;;4.65;;
49784;SDS011;35679;38.732;-121.358;2022-08-01T02:39:19;7.32;;;4.40;;
49784;SDS011;35679;38.732;-121.358;2022-08-01T02:42:10;6.70;;;4.40;;
49784;SDS011;35679;38.732;-121.358;2022-08-01T02:45:02;6.18;;;4.68;;
49784;SDS011;35679;38.732;-121.358;2022-08-01T02:47:54;6.32;;;4.25;;
49784;SDS011;35679;38.732;-121.358;2022-08-01T02:50:48;6.00;;;4.30;;
49784;SDS011;35679;38.732;-121.358;2022-08-01T02:53:39;5.18;;;3.90;;
49784;SDS011;35679;38.732;-121.358;2022-08-01T02:56:31;6.10;;;4.30;;
49784;SDS011;35679;38.732;-121.358;2022-08-01T02:59:25;5.20;;;4.05;;
49784;SDS011;35679;38.732;-121.358;2022-08-01T03:02:20;8.25;;;3.90;;
49784;SDS011;35679;38.732;-121.358;2022-08-01T03:05:14;5.45;;;3.97;;
49784;SDS011;35679;38.732;-121.358;2022-08-01T03:08:06;5.78;;;3.85;;
49784;SDS011;35679;38.732;-121.358;2022-08-01T03:11:01;3.75;;;3.40;;
49784;SDS011;35679;38.732;-121.358;2022-08-01T03:13:53;4.03;;;3.60;;
49784;SDS011;35679;38.732;-121.358;2022-08-01T03:16:44;4.28;;;3.88;;
49784;SDS011;35679;38.732;-121.358;2022-08-01T03:19:35;5.18;;;3.22;;
49784;SDS011;35679;38.732;-121.358;2022-08-01T03:22:27;3.73;;;3.40;;
49784;SDS011;35679;38.732;-121.358;2022-08-01T03:25:18;4.95;;;2.90;;
49784;SDS011;35679;38.732;-121.358;2022-08-01T03:28:10;3.38;;;2.92;;
49784;SDS011;35679;38.732;-121.358;2022-08-01T03:31:01;3.05;;;2.80;;
49784;SDS011;35679;38.732;-121.358;2022-08-01T03:33:51;4.22;;;3.30;;
49784;SDS011;35679;38.732;-121.358;2022-08-01T03:36:46;3.47;;;3.20;;
49784;SDS011;35679;38.732;-121.358;2022-08-01T03:39:47;3.53;;;3.10;;
49784;SDS011;35679;38.732;-121.358;2022-08-01T03:42:45;3.38;;;3.08;;
49784;SDS011;35679;38.732;-121.358;2022-08-01T03:45:38;4.07;;;3.20;;
49784;SDS011;35679;38.732;-121.358;2022-08-01T03:48:29;3.40;;;2.90;;
49784;SDS011;35679;38.732;-121.358;2022-08-01T03:51:24;3.05;;;2.63;;
49784;SDS011;35679;38.732;-121.358;2022-08-01T03:54:14;3.20;;;2.80;;
49784;SDS011;35679;38.732;-121.358;2022-08-01T03:57:06;3.72;;;3.42;;
49784;SDS011;35679;38.732;-121.358;2022-08-01T04:00:17;4.55;;;3.00;;
49784;SDS011;35679;38.732;-121.358;2022-08-01T04:03:10;4.35;;;3.50;;
49784;SDS011;35679;38.732;-121.358;2022-08-01T04:06:04;3.70;;;3.40;;
49784;SDS011;35679;38.732;-121.358;2022-08-01T04:08:58;4.60;;;3.25;;
49784;SDS011;35679;38.732;-121.358;2022-08-01T04:11:48;3.17;;;2.95;;
49784;SDS011;35679;38.732;-121.358;2022-08-01T04:14:38;3.38;;;3.08;;
49784;SDS011;35679;38.732;-121.358;2022-08-01T04:17:27;3.47;;;3.17;;
49784;SDS011;35679;38.732;-121.358;2022-08-01T04:20:16;3.67;;;3.38;;
49784;SDS011;35679;38.732;-121.358;2022-08-01T04:23:06;3.15;;;2.95;;
49784;SDS011;35679;38.732;-121.358;2022-08-01T04:25:56;3.38;;;3.08;;
49784;SDS011;35679;38.732;-121.358;2022-08-01T04:28:47;3.07;;;2.87;;
49784;SDS011;35679;38.732;-121.358;2022-08-01T04:31:41;3.13;;;2.83;;
49784;SDS011;35679;38.732;-121.358;2022-08-01T04:34:32;3.40;;;3.10;;
49784;SDS011;35679;38.732;-121.358;2022-08-01T04:37:23;2.92;;;2.72;;
49784;SDS011;35679;38.732;-121.358;2022-08-01T04:40:14;3.50;;;2.80;;
49784;SDS011;35679;38.732;-121.358;2022-08-01T04:43:05;3.25;;;2.63;;
49784;SDS011;35679;38.732;-121.358;2022-08-01T04:45:56;3.22;;;3.00;;
49784;SDS011;35679;38.732;-121.358;2022-08-01T04:48:49;2.90;;;2.70;;
49784;SDS011;35679;38.732;-121.358;2022-08-01T04:51:49;6.35;;;2.92;;
49784;SDS011;35679;38.732;-121.358;2022-08-01T04:54:39;2.88;;;2.67;;
49784;SDS011;35679;38.732;-121.358;2022-08-01T04:57:29;3.00;;;2.80;;
49784;SDS011;35679;38.732;-121.358;2022-08-01T05:00:19;3.05;;;2.75;;
49784;SDS011;35679;38.732;-121.358;2022-08-01T05:03:09;2.78;;;2.55;;
49784;SDS011;35679;38.732;-121.358;2022-08-01T05:05:59;3.05;;;2.85;;
49784;SDS011;35679;38.732;-121.358;2022-08-01T05:08:49;2.63;;;2.42;;
49784;SDS011;35679;38.732;-121.358;2022-08-01T05:11:38;2.90;;;2.70;;
49784;SDS011;35679;38.732;-121.358;2022-08-01T05:14:27;2.63;;;2.42;;
49784;SDS011;35679;38.732;-121.358;2022-08-01T05:17:20;2.92;;;2.60;;
49784;SDS011;35679;38.732;-121.358;2022-08-01T05:20:09;2.75;;;2.55;;
49784;SDS011;35679;38.732;-121.358;2022-08-01T05:23:00;2.80;;;2.60;;
49784;SDS011;35679;38.732;-121.358;2022-08-01T05:25:49;2.83;;;2.63;;
49784;SDS011;35679;38.732;-121.358;2022-08-01T05:28:45;4.93;;;2.42;;
49784;SDS011;35679;38.732;-121.358;2022-08-01T05:31:34;3.22;;;2.92;;
49784;SDS011;35679;38.732;-121.358;2022-08-01T05:34:24;3.38;;;2.40;;
49784;SDS011;35679;38.732;-121.358;2022-08-01T05:37:15;2.63;;;2.42;;
49784;SDS011;35679;38.732;-121.358;2022-08-01T05:40:05;2.60;;;2.40;;
49784;SDS011;35679;38.732;-121.358;2022-08-01T05:42:54;3.03;;;2.38;;
49784;SDS011;35679;38.732;-121.358;2022-08-01T05:45:45;2.47;;;2.30;;
49784;SDS011;35679;38.732;-121.358;2022-08-01T05:48:35;2.58;;;2.38;;
49784;SDS011;35679;38.732;-121.358;2022-08-01T05:51:25;2.40;;;2.30;;
49784;SDS011;35679;38.732;-121.358;2022-08-01T05:54:14;9.93;;;3.03;;
49784;SDS011;35679;38.732;-121.358;2022-08-01T05:57:04;2.85;;;2.63;;
49784;SDS011;35679;38.732;-121.358;2022-08-01T05:59:54;2.50;;;2.30;;
49784;SDS011;35679;38.732;-121.358;2022-08-01T06:02:44;2.63;;;2.42;;
49784;SDS011;35679;38.732;-121.358;2022-08-01T06:05:33;2.22;;;2.10;;
49784;SDS011;35679;38.732;-121.358;2022-08-01T06:08:22;2.50;;;2.30;;
49784;SDS011;35679;38.732;-121.358;2022-08-01T06:11:11;2.40;;;2.30;;
49784;SDS011;35679;38.732;-121.358;2022-08-01T06:14:04;2.42;;;2.30;;
49784;SDS011;35679;38.732;-121.358;2022-08-01T06:16:53;2.72;;;2.53;;
49784;SDS011;35679;38.732;-121.358;2022-08-01T06:19:43;2.70;;;2.50;;
49784;SDS011;35679;38.732;-121.358;2022-08-01T06:22:32;2.55;;;2.08;;
49784;SDS011;35679;38.732;-121.358;2022-08-01T06:25:23;2.60;;;2.30;;
49784;SDS011;35679;38.732;-121.358;2022-08-01T06:28:12;2.50;;;2.28;;
49784;SDS011;35679;38.732;-121.358;2022-08-01T06:31:02;2.42;;;2.28;;
49784;SDS011;35679;38.732;-121.358;2022-08-01T06:33:52;2.30;;;2.17;;
49784;SDS011;35679;38.732;-121.358;2022-08-01T06:36:41;2.78;;;2.13;;
49784;SDS011;35679;38.732;-121.358;2022-08-01T06:39:30;2.38;;;2.20;;
49784;SDS011;35679;38.732;-121.358;2022-08-01T06:42:20;2.15;;;2.05;;
49784;SDS011;35679;38.732;-121.358;2022-08-01T06:45:10;2.13;;;2.03;;
49784;SDS011;35679;38.732;-121.358;2022-08-01T06:48:00;2.25;;;2.15;;
49784;SDS011;35679;38.732;-121.358;2022-08-01T06:50:49;3.00;;;2.10;;
49784;SDS011;35679;38.732;-121.358;2022-08-01T06:53:55;2.75;;;2.13;;
49784;SDS011;35679;38.732;-121.358;2022-08-01T06:56:45;2.55;;;2.35;;
49784;SDS011;35679;38.732;-121.358;2022-08-01T06:59:34;2.30;;;2.10;;
49784;SDS011;35679;38.732;-121.358;2022-08-01T07:02:23;2.08;;;1.98;;
49784;SDS011;35679;38.732;-121.358;2022-08-01T07:05:12;2.25;;;2.15;;
49784;SDS011;35679;38.732;-121.358;2022-08-01T07:08:02;2.20;;;2.10;;
49784;SDS011;35679;38.732;-121.358;2022-08-01T07:10:52;2.17;;;2.08;;
49784;SDS011;35679;38.732;-121.358;2022-08-01T07:13:42;2.20;;;2.10;;
49784;SDS011;35679;38.732;-121.358;2022-08-01T07:16:32;2.28;;;2.10;;
49784;SDS011;35679;38.732;-121.358;2022-08-01T07:19:21;2.92;;;2.20;;
49784;SDS011;35679;38.732;-121.358;2022-08-01T07:22:10;2.17;;;2.03;;
49784;SDS011;35679;38.732;-121.358;2022-08-01T07:25:09;2.10;;;2.00;;
49784;SDS011;35679;38.732;-121.358;2022-08-01T07:28:00;2.53;;;2.33;;
49784;SDS011;35679;38.732;-121.358;2022-08-01T07:30:50;2.30;;;2.20;;
49784;SDS011;35679;38.732;-121.358;2022-08-01T07:33:39;2.45;;;2.25;;
49784;SDS011;35679;38.732;-121.358;2022-08-01T07:36:35;2.40;;;2.17;;
49784;SDS011;35679;38.732;-121.358;2022-08-01T07:39:24;2.47;;;2.28;;
49784;SDS011;35679;38.732;-121.358;2022-08-01T07:42:14;2.03;;;1.92;;
49784;SDS011;35679;38.732;-121.358;2022-08-01T07:45:04;2.58;;;2.42;;
49784;SDS011;35679;38.732;-121.358;2022-08-01T07:47:54;2.20;;;2.10;;
49784;SDS011;35679;38.732;-121.358;2022-08-01T07:50:43;2.65;;;2.45;;
49784;SDS011;35679;38.732;-121.358;2022-08-01T07:53:32;2.13;;;2.03;;
49784;SDS011;35679;38.732;-121.358;2022-08-01T07:56:22;2.38;;;2.22;;
49784;SDS011;35679;38.732;-121.358;2022-08-01T07:59:12;2.20;;;2.10;;
49784;SDS011;35679;38.732;-121.358;2022-08-01T08:02:10;2.10;;;2.00;;
49784;SDS011;35679;38.732;-121.358;2022-08-01T08:05:00;2.35;;;2.17;;
49784;SDS011;35679;38.732;-121.358;2022-08-01T08:07:51;2.30;;;2.20;;
49784;SDS011;35679;38.732;-121.358;2022-08-01T08:10:41;2.50;;;2.30;;
49784;SDS011;35679;38.732;-121.358;2022-08-01T08:13:30;2.53;;;2.20;;
49784;SDS011;35679;38.732;-121.358;2022-08-01T08:16:20;2.30;;;2.10;;
49784;SDS011;35679;38.732;-121.358;2022-08-01T08:19:10;3.58;;;2.20;;
49784;SDS011;35679;38.732;-121.358;2022-08-01T08:22:00;3.60;;;2.45;;
49784;SDS011;35679;38.732;-121.358;2022-08-01T08:24:49;2.60;;;2.50;;
49784;SDS011;35679;38.732;-121.358;2022-08-01T08:27:39;2.85;;;2.60;;
49784;SDS011;35679;38.732;-121.358;2022-08-01T08:30:28;2.72;;;2.53;;
49784;SDS011;35679;38.732;-121.358;2022-08-01T08:33:18;3.22;;;2.92;;
49784;SDS011;35679;38.732;-121.358;2022-08-01T08:36:07;2.90;;;2.60;;
49784;SDS011;35679;38.732;-121.358;2022-08-01T08:38:57;2.50;;;2.40;;
49784;SDS011;35679;38.732;-121.358;2022-08-01T08:41:50;2.90;;;2.70;;
49784;SDS011;35679;38.732;-121.358;2022-08-01T08:44:41;2.55;;;2.35;;
49784;SDS011;35679;38.732;-121.358;2022-08-01T08:47:31;2.70;;;2.50;;
49784;SDS011;35679;38.732;-121.358;2022-08-01T08:50:23;2.45;;;2.35;;
49784;SDS011;35679;38.732;-121.358;2022-08-01T08:53:14;2.28;;;2.17;;
49784;SDS011;35679;38.732;-121.358;2022-08-01T08:56:06;2.33;;;2.22;;
49784;SDS011;35679;38.732;-121.358;2022-08-01T08:58:56;2.63;;;2.42;;
49784;SDS011;35679;38.732;-121.358;2022-08-01T09:01:46;2.78;;;2.60;;
49784;SDS011;35679;38.732;-121.358;2022-08-01T09:04:36;2.60;;;2.50;;
49784;SDS011;35679;38.732;-121.358;2022-08-01T09:07:27;2.50;;;2.40;;
49784;SDS011;35679;38.732;-121.358;2022-08-01T09:10:16;2.45;;;2.35;;
49784;SDS011;35679;38.732;-121.358;2022-08-01T09:13:14;2.65;;;2.50;;
49784;SDS011;35679;38.732;-121.358;2022-08-01T09:16:04;2.90;;;2.70;;
49784;SDS011;35679;38.732;-121.358;2022-08-01T09:18:54;2.30;;;2.20;;
49784;SDS011;35679;38.732;-121.358;2022-08-01T09:22:16;2.60;;;2.50;;
49784;SDS011;35679;38.732;-121.358;2022-08-01T09:25:09;2.80;;;2.60;;
49784;SDS011;35679;38.732;-121.358;2022-08-01T09:28:04;2.80;;;2.60;;
49784;SDS011;35679;38.732;-121.358;2022-08-01T09:30:57;2.83;;;2.63;;
49784;SDS011;35679;38.732;-121.358;2022-08-01T09:33:53;2.90;;;2.70;;
49784;SDS011;35679;38.732;-121.358;2022-08-01T09:36:52;2.78;;;2.58;;
49784;SDS011;35679;38.732;-121.358;2022-08-01T09:39:44;3.10;;;2.80;;
49784;SDS011;35679;38.732;-121.358;2022-08-01T09:42:34;2.80;;;2.70;;
49784;SDS011;35679;38.732;-121.358;2022-08-01T09:45:33;2.90;;;2.70;;
49784;SDS011;35679;38.732;-121.358;2022-08-01T09:48:30;3.00;;;2.80;;
49784;SDS011;35679;38.732;-121.358;2022-08-01T09:51:28;2.95;;;2.75;;
49784;SDS011;35679;38.732;-121.358;2022-08-01T09:54:42;2.50;;;2.40;;
49784;SDS011;35679;38.732;-121.358;2022-08-01T09:57:41;3.00;;;2.80;;
49784;SDS011;35679;38.732;-121.358;2022-08-01T10:00:44;3.10;;;2.90;;
49784;SDS011;35679;38.732;-121.358;2022-08-01T10:04:12;2.90;;;2.70;;
49784;SDS011;35679;38.732;-121.358;2022-08-01T10:07:05;2.85;;;2.70;;
49784;SDS011;35679;38.732;-121.358;2022-08-01T10:10:16;2.65;;;2.55;;
49784;SDS011;35679;38.732;-121.358;2022-08-01T10:13:13;2.70;;;2.50;;
49784;SDS011;35679;38.732;-121.358;2022-08-01T10:16:02;2.95;;;2.70;;
49784;SDS011;35679;38.732;-121.358;2022-08-01T10:18:54;3.00;;;2.80;;
49784;SDS011;35679;38.732;-121.358;2022-08-01T10:21:43;2.90;;;2.70;;
49784;SDS011;35679;38.732;-121.358;2022-08-01T10:24:46;2.97;;;2.65;;
49784;SDS011;35679;38.732;-121.358;2022-08-01T10:27:37;3.00;;;2.80;;
49784;SDS011;35679;38.732;-121.358;2022-08-01T10:30:28;2.95;;;2.75;;
49784;SDS011;35679;38.732;-121.358;2022-08-01T10:33:18;3.15;;;2.63;;
49784;SDS011;35679;38.732;-121.358;2022-08-01T10:36:31;3.00;;;2.75;;
49784;SDS011;35679;38.732;-121.358;2022-08-01T10:39:27;2.80;;;2.60;;
49784;SDS011;35679;38.732;-121.358;2022-08-01T10:42:19;3.40;;;2.88;;
49784;SDS011;35679;38.732;-121.358;2022-08-01T10:45:09;2.80;;;2.60;;
49784;SDS011;35679;38.732;-121.358;2022-08-01T10:48:16;2.70;;;2.60;;
49784;SDS011;35679;38.732;-121.358;2022-08-01T10:51:07;3.08;;;2.88;;
49784;SDS011;35679;38.732;-121.358;2022-08-01T10:54:05;3.15;;;2.90;;
49784;SDS011;35679;38.732;-121.358;2022-08-01T10:56:56;2.80;;;2.60;;
49784;SDS011;35679;38.732;-121.358;2022-08-01T10:59:49;3.17;;;2.75;;
49784;SDS011;35679;38.732;-121.358;2022-08-01T11:02:57;3.00;;;2.80;;
49784;SDS011;35679;38.732;-121.358;2022-08-01T11:05:52;2.90;;;2.70;;
49784;SDS011;35679;38.732;-121.358;2022-08-01T11:08:42;2.83;;;2.63;;
49784;SDS011;35679;38.732;-121.358;2022-08-01T11:11:56;2.72;;;2.53;;
49784;SDS011;35679;38.732;-121.358;2022-08-01T11:18:00;2.97;;;2.40;;
49784;SDS011;35679;38.732;-121.358;2022-08-01T11:21:17;2.95;;;2.72;;
49784;SDS011;35679;38.732;-121.358;2022-08-01T11:27:37;2.90;;;2.70;;
49784;SDS011;35679;38.732;-121.358;2022-08-01T11:30:26;4.03;;;2.63;;
49784;SDS011;35679;38.732;-121.358;2022-08-01T11:33:18;4.57;;;2.63;;
49784;SDS011;35679;38.732;-121.358;2022-08-01T11:36:32;3.42;;;2.90;;
49784;SDS011;35679;38.732;-121.358;2022-08-01T11:39:42;3.00;;;2.80;;
49784;SDS011;35679;38.732;-121.358;2022-08-01T11:42:31;2.90;;;2.70;;
49784;SDS011;35679;38.732;-121.358;2022-08-01T11:45:21;3.60;;;3.05;;
49784;SDS011;35679;38.732;-121.358;2022-08-01T11:48:44;2.70;;;2.50;;
49784;SDS011;35679;38.732;-121.358;2022-08-01T11:52:08;3.65;;;3.03;;
49784;SDS011;35679;38.732;-121.358;2022-08-01T11:58:02;3.30;;;3.00;;
49784;SDS011;35679;38.732;-121.358;2022-08-01T12:01:14;3.28;;;3.03;;
49784;SDS011;35679;38.732;-121.358;2022-08-01T12:04:04;3.00;;;2.80;;
49784;SDS011;35679;38.732;-121.358;2022-08-01T12:06:53;4.20;;;2.90;;
49784;SDS011;35679;38.732;-121.358;2022-08-01T12:09:43;2.67;;;2.50;;
49784;SDS011;35679;38.732;-121.358;2022-08-01T12:12:36;3.78;;;2.75;;
49784;SDS011;35679;38.732;-121.358;2022-08-01T12:15:31;3.03;;;2.80;;
49784;SDS011;35679;38.732;-121.358;2022-08-01T12:18:26;3.45;;;2.78;;
49784;SDS011;35679;38.732;-121.358;2022-08-01T12:21:15;2.78;;;2.58;;
49784;SDS011;35679;38.732;-121.358;2022-08-01T12:24:06;3.40;;;2.80;;
49784;SDS011;35679;38.732;-121.358;2022-08-01T12:26:55;3.35;;;3.00;;
49784;SDS011;35679;38.732;-121.358;2022-08-01T12:29:45;3.00;;;2.80;;
49784;SDS011;35679;38.732;-121.358;2022-08-01T12:32:36;3.50;;;2.97;;
49784;SDS011;35679;38.732;-121.358;2022-08-01T12:35:27;2.97;;;2.78;;
49784;SDS011;35679;38.732;-121.358;2022-08-01T12:38:21;3.30;;;2.88;;
49784;SDS011;35679;38.732;-121.358;2022-08-01T12:41:13;3.42;;;3.13;;
49784;SDS011;35679;38.732;-121.358;2022-08-01T12:44:02;3.03;;;2.83;;
49784;SDS011;35679;38.732;-121.358;2022-08-01T12:47:00;3.35;;;3.10;;
49784;SDS011;35679;38.732;-121.358;2022-08-01T12:49:54;3.08;;;2.88;;
49784;SDS011;35679;38.732;-121.358;2022-08-01T12:52:43;3.28;;;2.97;;
49784;SDS011;35679;38.732;-121.358;2022-08-01T12:55:33;2.92;;;2.72;;
49784;SDS011;35679;38.732;-121.358;2022-08-01T12:58:45;3.45;;;3.20;;
49784;SDS011;35679;38.732;-121.358;2022-08-01T13:01:35;3.10;;;2.90;;
49784;SDS011;35679;38.732;-121.358;2022-08-01T13:04:24;3.10;;;2.90;;
49784;SDS011;35679;38.732;-121.358;2022-08-01T13:07:14;3.10;;;2.90;;
49784;SDS011;35679;38.732;-121.358;2022-08-01T13:10:03;3.40;;;3.03;;
49784;SDS011;35679;38.732;-121.358;2022-08-01T13:12:54;3.53;;;3.22;;
49784;SDS011;35679;38.732;-121.358;2022-08-01T13:15:46;3.28;;;3.08;;
49784;SDS011;35679;38.732;-121.358;2022-08-01T13:18:41;3.25;;;2.95;;
49784;SDS011;35679;38.732;-121.358;2022-08-01T13:21:38;3.30;;;3.08;;
49784;SDS011;35679;38.732;-121.358;2022-08-01T13:24:41;3.45;;;3.17;;
49784;SDS011;35679;38.732;-121.358;2022-08-01T13:27:30;3.10;;;2.83;;
49784;SDS011;35679;38.732;-121.358;2022-08-01T13:30:21;3.20;;;3.00;;
49784;SDS011;35679;38.732;-121.358;2022-08-01T13:33:12;3.10;;;2.90;;
49784;SDS011;35679;38.732;-121.358;2022-08-01T13:36:04;3.28;;;2.90;;
49784;SDS011;35679;38.732;-121.358;2022-08-01T13:38:53;3.30;;;3.03;;
49784;SDS011;35679;38.732;-121.358;2022-08-01T13:42:02;2.97;;;2.70;;
49784;SDS011;35679;38.732;-121.358;2022-08-01T13:44:52;3.20;;;2.90;;
49784;SDS011;35679;38.732;-121.358;2022-08-01T13:47:42;3.17;;;2.97;;
49784;SDS011;35679;38.732;-121.358;2022-08-01T13:50:51;3.30;;;2.75;;
49784;SDS011;35679;38.732;-121.358;2022-08-01T13:54:01;3.13;;;2.83;;
49784;SDS011;35679;38.732;-121.358;2022-08-01T13:56:50;3.40;;;3.10;;
49784;SDS011;35679;38.732;-121.358;2022-08-01T13:59:40;3.13;;;2.90;;
49784;SDS011;35679;38.732;-121.358;2022-08-01T14:02:36;4.10;;;2.92;;
49784;SDS011;35679;38.732;-121.358;2022-08-01T14:05:26;3.55;;;3.05;;
49784;SDS011;35679;38.732;-121.358;2022-08-01T14:08:16;3.20;;;2.90;;
49784;SDS011;35679;38.732;-121.358;2022-08-01T14:11:06;3.60;;;3.05;;
49784;SDS011;35679;38.732;-121.358;2022-08-01T14:13:55;3.13;;;2.90;;
49784;SDS011;35679;38.732;-121.358;2022-08-01T14:16:45;3.20;;;3.00;;
49784;SDS011;35679;38.732;-121.358;2022-08-01T14:19:34;3.25;;;2.95;;
49784;SDS011;35679;38.732;-121.358;2022-08-01T14:22:29;2.97;;;2.80;;
49784;SDS011;35679;38.732;-121.358;2022-08-01T14:25:18;5.07;;;2.70;;
49784;SDS011;35679;38.732;-121.358;2022-08-01T14:28:28;2.63;;;2.42;;
49784;SDS011;35679;38.732;-121.358;2022-08-01T14:31:19;3.30;;;3.03;;
49784;SDS011;35679;38.732;-121.358;2022-08-01T14:34:08;3.38;;;3.00;;
49784;SDS011;35679;38.732;-121.358;2022-08-01T14:36:58;3.05;;;2.78;;
49784;SDS011;35679;38.732;-121.358;2022-08-01T14:39:49;3.40;;;3.10;;
49784;SDS011;35679;38.732;-121.358;2022-08-01T14:42:41;3.30;;;3.00;;
49784;SDS011;35679;38.732;-121.358;2022-08-01T14:45:32;3.30;;;3.00;;
49784;SDS011;35679;38.732;-121.358;2022-08-01T14:48:22;3.10;;;2.80;;
49784;SDS011;35679;38.732;-121.358;2022-08-01T14:51:12;4.90;;;3.00;;
49784;SDS011;35679;38.732;-121.358;2022-08-01T14:54:02;2.90;;;2.70;;
49784;SDS011;35679;38.732;-121.358;2022-08-01T14:56:51;3.40;;;3.03;;
49784;SDS011;35679;38.732;-121.358;2022-08-01T14:59:41;3.00;;;2.70;;
49784;SDS011;35679;38.732;-121.358;2022-08-01T15:02:30;3.08;;;2.85;;
49784;SDS011;35679;38.732;-121.358;2022-08-01T15:05:19;3.60;;;2.70;;
49784;SDS011;35679;38.732;-121.358;2022-08-01T15:08:09;4.63;;;3.08;;
49784;SDS011;35679;38.732;-121.358;2022-08-01T15:10:59;4.45;;;3.10;;
49784;SDS011;35679;38.732;-121.358;2022-08-01T15:13:49;3.65;;;2.90;;
49784;SDS011;35679;38.732;-121.358;2022-08-01T15:16:58;4.97;;;2.72;;
49784;SDS011;35679;38.732;-121.358;2022-08-01T15:19:50;3.15;;;2.95;;
49784;SDS011;35679;38.732;-121.358;2022-08-01T15:22:43;3.38;;;2.90;;
49784;SDS011;35679;38.732;-121.358;2022-08-01T15:25:33;4.50;;;2.60;;
49784;SDS011;35679;38.732;-121.358;2022-08-01T15:28:28;3.78;;;2.65;;
49784;SDS011;35679;38.732;-121.358;2022-08-01T15:31:18;2.70;;;2.50;;
49784;SDS011;35679;38.732;-121.358;2022-08-01T15:34:07;5.93;;;2.70;;
49784;SDS011;35679;38.732;-121.358;2022-08-01T15:36:57;2.95;;;2.47;;
49784;SDS011;35679;38.732;-121.358;2022-08-01T15:39:46;4.03;;;2.72;;
49784;SDS011;35679;38.732;-121.358;2022-08-01T15:42:35;2.80;;;2.60;;
49784;SDS011;35679;38.732;-121.358;2022-08-01T15:45:25;3.00;;;2.80;;
49784;SDS011;35679;38.732;-121.358;2022-08-01T15:48:35;3.00;;;2.80;;
49784;SDS011;35679;38.732;-121.358;2022-08-01T15:51:26;2.95;;;2.55;;
49784;SDS011;35679;38.732;-121.358;2022-08-01T15:54:16;4.82;;;2.72;;
49784;SDS011;35679;38.732;-121.358;2022-08-01T15:57:05;4.72;;;2.90;;
49784;SDS011;35679;38.732;-121.358;2022-08-01T15:59:56;3.00;;;2.80;;
49784;SDS011;35679;38.732;-121.358;2022-08-01T16:02:45;2.90;;;2.70;;
49784;SDS011;35679;38.732;-121.358;2022-08-01T16:05:36;3.13;;;2.90;;
49784;SDS011;35679;38.732;-121.358;2022-08-01T16:08:30;2.63;;;2.53;;
49784;SDS011;35679;38.732;-121.358;2022-08-01T16:11:20;2.92;;;2.72;;
49784;SDS011;35679;38.732;-121.358;2022-08-01T16:14:11;2.92;;;2.60;;
49784;SDS011;35679;38.732;-121.358;2022-08-01T16:17:02;2.90;;;2.70;;
49784;SDS011;35679;38.732;-121.358;2022-08-01T16:19:51;2.90;;;2.70;;
49784;SDS011;35679;38.732;-121.358;2022-08-01T16:22:40;3.28;;;3.08;;
49784;SDS011;35679;38.732;-121.358;2022-08-01T16:25:30;3.10;;;2.85;;
49784;SDS011;35679;38.732;-121.358;2022-08-01T16:28:20;2.90;;;2.70;;
49784;SDS011;35679;38.732;-121.358;2022-08-01T16:31:10;2.72;;;2.63;;
49784;SDS011;35679;38.732;-121.358;2022-08-01T16:34:19;2.85;;;2.65;;
49784;SDS011;35679;38.732;-121.358;2022-08-01T16:37:11;3.10;;;2.90;;
49784;SDS011;35679;38.732;-121.358;2022-08-01T16:40:00;3.10;;;2.90;;
49784;SDS011;35679;38.732;-121.358;2022-08-01T16:42:50;2.75;;;2.50;;
49784;SDS011;35679;38.732;-121.358;2022-08-01T16:45:44;2.88;;;2.60;;
49784;SDS011;35679;38.732;-121.358;2022-08-01T16:48:34;3.10;;;2.80;;
49784;SDS011;35679;38.732;-121.358;2022-08-01T16:51:25;2.80;;;2.63;;
49784;SDS011;35679;38.732;-121.358;2022-08-01T16:54:19;2.58;;;2.45;;
49784;SDS011;35679;38.732;-121.358;2022-08-01T16:57:12;2.72;;;2.50;;
49784;SDS011;35679;38.732;-121.358;2022-08-01T17:00:10;2.83;;;2.63;;
49784;SDS011;35679;38.732;-121.358;2022-08-01T17:03:11;2.95;;;2.65;;
49784;SDS011;35679;38.732;-121.358;2022-08-01T17:06:21;3.25;;;2.67;;